Tiempo atmosférico en la estación meteorológica de Tortosa, Tarragona (44 m.)



Fecha
DESCASC
Temp. máxima en grados centígrados (hora)
DESCASC
Temp. mínima en grados centígrados (hora)
DESCASC
Temp. media en grados centígrados
DESCASC
Racha de viento máxima en m/sg (hora)
DESCASC
Velocidad máxima media en intervalos de 10 minutos(hora)
DESCASC
Precipitaciones diarias en mm
DESCASC
Precipitaciones de 00:00 a 06:00 en mm
DESCASC
Precipitaciones de 06:00 a 12:00 en mm
DESCASC
Precipitaciones de 12:00 a 18:00 en mm
DESCASC
Precipitaciones de 18:00 a 24:00 en mm
DESCASC
05-04-2020 20.2 (14:10) 7.4 (05:30) 13.8 9.44 (14:30) 4.72 (13:50) 0 0 0 0 0
04-04-2020 19.8 (13:50) 4.9 (07:40) 12.3 10 (16:30) 5.83 (15:30) 0 0 0 0 0
03-04-2020 20.3 (15:00) 9.7 (07:20) 15 11.11 (05:50) 5.28 (03:50) 0.4 0.4 0 0 0
02-04-2020 17 (14:50) 9.6 (00:00) 13.3 6.67 (15:20) 3.33 (07:40) 1.8 0 0.2 0 1.6
01-04-2020 11.4 (08:50) 7.9 (00:00) 9.6 15.28 (09:50) 5.28 (09:30) 43 0.8 4.6 27.8 9.8
31-03-2020 7.9 (23:59) 5.1 (00:00) 6.5 8.61 (05:30) 4.44 (07:40) 18 1.2 5.2 7.2 4.4
30-03-2020 13.4 (00:00) 6.4 (00:00) 9.9 15.83 (11:20) 7.78 (11:20) 2.6 0 0 1.6 1
29-03-2020 22.8 (16:30) 9.5 (00:00) 16.1 11.67 (18:50) 6.67 (10:10) 0 0 0 0 0
28-03-2020 20.8 (14:20) 8.9 (00:00) 14.8 7.22 (12:40) 3.61 (11:30) 0 0 0 0 0
27-03-2020 18.1 (15:10) 5.2 (00:00) 11.7 8.33 (09:50) 4.17 (09:50) 0 0 0 0 0
26-03-2020 15.9 (12:10) 6.2 (00:00) 11 12.78 (11:00) 6.67 (12:30) 5.6 0 0 4 1.6
25-03-2020 12.5 (17:10) 8.1 (00:00) 10.3 6.39 (01:40) 3.33 (08:30) 1.4 0.2 1 0.2 0
24-03-2020 14.3 (14:30) 11.3 (00:00) 12.8 8.61 (13:00) 3.61 (15:40) 0.2 0.2 0 0 0
23-03-2020 16.3 (11:40) 11 (00:00) 13.6 9.44 (23:40) 3.89 (21:40) 6.4 0.2 1.8 4.4 0
22-03-2020 13.5 (13:00) 7.4 (07:20) 10.5 5.83 (13:20) 3.33 (13:20) 8.4 0 0 8.4 0
21-03-2020 19.6 (15:40) 6.5 (00:00) 13.1 6.39 (15:00) 3.61 (16:50) 0 0 0 0 0
20-03-2020 18.6 (12:50) 8.9 (00:00) 13.8 7.5 (13:00) 4.17 (15:20) 0 0 0 0 0
19-03-2020 19.8 (14:40) 7.2 (00:00) 13.5 6.67 (14:40) 3.89 (17:20) 0 0 0 0 0
18-03-2020 20.3 (14:20) 8.9 (00:00) 14.6 5.56 (14:40) 3.33 (17:10) 0 0 0 0 0
17-03-2020 15.7 (16:20) 11.3 (00:00) 13.5 15.28 (01:10) 5.83 (07:20) 2.6 2 0.6 0 0
16-03-2020 15.2 (15:30) 13.2 (00:00) 14.2 16.39 (20:30) 7.22 (18:00) 6 0 1.2 1.8 3
15-03-2020 20.4 (13:20) 9.3 (00:00) 14.8 11.94 (13:40) 6.67 (14:10) 0 0 0 0 0
14-03-2020 23.6 (14:30) 10.6 (00:00) 17.1 7.78 (11:00) 3.89 (16:20) 0 0 0 0 0
13-03-2020 21.9 (13:30) 12 (07:50) 16.9 8.33 (15:40) 4.17 (15:40) 0 0 0 0 0
12-03-2020 22.5 (13:10) 8.1 (00:00) 15.3 7.5 (15:30) 4.17 (14:10) 0 0 0 0 0
11-03-2020 26 (14:30) 9.2 (00:00) 17.6 6.94 (15:00) 3.89 (15:00) 0 0 0 0 0

Gráficas

Temp. máximas Temp. mínimas Temp. medias Precipitaciones Rachas de viento máximas Velocidades máximas media en intervalos de 10 minutos

Datos horarios

Fecha y hora oficial Temperatura (ºC) Velocidad del viento (km/h) Dirección del viento Racha (km/h) Dirección de racha Precipitación (mm) Presión (hPa) Tendencia (hPa) Humedad (%)
2020-04-09 23:00:00 13.6 9 Sur 15 Sudeste 0 1017.9 1.5 89
2020-04-09 22:00:00 14.2 8 Sudeste 22 Sur 0 1017.6 1.4 85
2020-04-09 21:00:00 15.1 12 Sudeste 29 Sudeste 0 1016.7 0.8 78
2020-04-09 20:00:00 16.3 15 Sudeste 28 Sudeste 0 1016.4 0.4 69
2020-04-09 19:00:00 18.2 16 Sudeste 33 Sudeste 0 1016.2 -0.3 63
2020-04-09 18:00:00 19.2 17 Sudeste 37 Sudeste 0 1015.9 -1.1 56
2020-04-09 17:00:00 20.4 15 Sudeste 33 Sudeste 0 1016 -1.4 53
2020-04-09 16:00:00 20.5 20 Sudeste 35 Sudeste 0 1016.5 -1.5 47
2020-04-09 15:00:00 21.5 17 Sudeste 33 Este 0 1017 -1.4 46
2020-04-09 14:00:00 21.4 13 Sudeste 28 Sudeste 0 1017.4 -1.1 47
2020-04-09 13:00:00 20.3 14 Sudeste 25 Sudeste 0 1018 -0.2 55
2020-04-09 12:00:00 19.7 9 Sudeste 23 Sudeste 0 1018.4 0.2 57
2020-04-09 11:00:00 17.3 6 Sur 13 Sur 0 1018.5 0.7 70
2020-04-09 10:00:00 14.2 2 Sur 6 Noroeste 0 1018.2 0.7 83
2020-04-09 09:00:00 10.4 0 Calma 4 Norte 0 1018.2 0.9 98
2020-04-09 08:00:00 9 0 Calma 6 Norte 0 1017.8 0.2 98
2020-04-09 07:00:00 8.9 4 Norte -- -- 0 1017.5 -0.4 96
2020-04-09 06:00:00 9.2 0 Calma 4 Noroeste 0 1017.3 -1.1 95
2020-04-09 05:00:00 9.9 4 Noroeste 8 Noroeste 0 1017.6 -1.2 94
2020-04-09 04:00:00 10.4 4 Nordeste 6 Norte 0 1017.9 -1 94
2020-04-09 03:00:00 10.8 3 Nordeste 11 Oeste 0 1018.4 -0.8 93
2020-04-09 02:00:00 11.3 5 Sudoeste 8 Sur 0 1018.8 -0.7 88
2020-04-09 01:00:00 12 6 Sur 10 Sur 0 1018.9 -0.7 91
2020-04-09 00:00:00 12.9 6 Sur 13 Sur 0 1019.2 0.2 86
2020-04-08 23:00:00 14.4 8 Sur 13 Sur 0 1019.5 0.7 79
2020-04-08 22:00:00 14.9 7 Sur 14 Sur 0 1019.6 1.1 76
2020-04-08 21:00:00 15.3 7 Sudeste 16 Sudeste 0 1019 1 72
2020-04-08 20:00:00 15.8 10 Sudeste 22 Sudeste 0 1018.8 0.4 63
2020-04-08 19:00:00 16.7 12 Sudeste 26 Sudeste 0 1018.5 -0.4 62
2020-04-08 18:00:00 17.1 14 Sudeste 27 Sudeste 0 1018 -1.4 56
2020-04-08 17:00:00 18.8 14 Sudeste 26 Sur 0 1018.4 -1.5 59
2020-04-08 16:00:00 20.2 12 Sudeste 27 Sudeste 0 1018.9 -1.5 57
2020-04-08 15:00:00 20.3 16 Sudeste 30 Sur 0 1019.4 -1.4 52
2020-04-08 14:00:00 19.5 13 Sudeste 25 Este 0 1019.9 -1.3 62
2020-04-08 13:00:00 19.4 13 Sudeste 26 Sudeste 0 1020.4 -0.8 64
2020-04-08 12:00:00 18.8 5 Sur 12 Sudoeste 0 1020.8 -0.2 63
2020-04-08 11:00:00 15.3 3 Sur 6 Sur 0 1021.2 0.5 76
2020-04-08 10:00:00 13 2 Norte 7 Norte 0 1021.2 0.5 84
2020-04-08 09:00:00 9.6 2 Este 4 Nordeste 0 1021 0.3 98
2020-04-08 08:00:00 8.2 0 Calma 6 Norte 0 1020.7 -0.4 98
2020-04-08 07:00:00 7.8 4 Norte 7 Norte 0 1020.7 -0.7 97
2020-04-08 06:00:00 7.7 4 Noroeste 10 Noroeste 0 1020.7 -1.2 96
2020-04-08 05:00:00 8.3 5 Noroeste 9 Noroeste 0 1021.1 -0.9 96
2020-04-08 04:00:00 9.1 7 Noroeste 9 Noroeste 0 1021.4 -0.6 97
2020-04-08 03:00:00 9.9 0 Calma 5 Sudoeste 0 1021.9 -0.2 96
2020-04-08 02:00:00 10.5 4 Sur 10 Sur 0 1022 0 94
2020-04-08 01:00:00 11 6 Sur 13 Sudeste 0 1022 0.1 94
2020-04-08 00:00:00 11.6 8 Sudeste 14 Sudeste 0 1022.1 0.6 91
2020-04-07 23:00:00 12.6 8 Sudeste 12 Sudeste 0 1022 0.8 89
2020-04-07 22:00:00 13.3 6 Sudeste 11 Sudeste 0 1021.9 1 86
2020-04-07 21:00:00 13.9 8 Sudeste 18 Sudeste 0 1021.5 1 81
2020-04-07 20:00:00 15.5 12 Sudeste 23 Sudeste 0 1021.2 0.6 72
2020-04-07 19:00:00 16.2 13 Sudeste 33 Sudeste 0 1020.9 -0.2 57
2020-04-07 18:00:00 17.1 15 Sudeste 32 Sudeste 0 1020.5 -1 60
2020-04-07 17:00:00 18.7 14 Sudeste 26 Sur 0 1020.6 -1 55
2020-04-07 16:00:00 18.7 13 Sudeste 29 Sur 0 1021.1 -0.7 56
2020-04-07 15:00:00 17.8 18 Sur 31 Sudeste 0 1021.5 -0.6 67
2020-04-07 14:00:00 16 12 Sudeste 24 Sudeste 0 1021.6 -0.2 79
2020-04-07 13:00:00 16.5 12 Sudeste 22 Sur 0 1021.8 0.2 75
2020-04-07 12:00:00 16.1 10 Sur 23 Sur 0 1022.1 0.7 80
2020-04-07 11:00:00 16 10 Sudeste 18 Sur 0 1021.8 0.9 83
2020-04-07 10:00:00 12.8 4 Sur 12 Sur 0 1021.6 1.1 95
2020-04-07 09:00:00 12.4 7 Sur 11 Sudoeste 0 1021.4 1.1 97
2020-04-07 08:00:00 12.2 5 Sudeste 10 Sur 1.6 1020.9 0.7 97
2020-04-07 07:00:00 12.2 4 Sudeste 10 Sur 0.2 1020.5 0.1 95
2020-04-07 06:00:00 12.5 5 Sur 10 Sur 0 1020.3 -0.4 95
2020-04-07 05:00:00 12.7 6 Sur 13 Sur 0 1020.2 -0.8 94
2020-04-07 04:00:00 12.8 6 Sur 11 Sudoeste 0 1020.4 -0.4 93
2020-04-07 03:00:00 12.8 8 Sudoeste 12 Sudoeste 0 1020.7 0.1 92
2020-04-07 02:00:00 13.1 6 Sur 9 Sur 0 1021 0.3 91
2020-04-07 01:00:00 13.2 7 Sudeste 14 Sudeste 0 1020.8 0.3 91
2020-04-07 00:00:00 13.3 9 Sudeste 14 Sudeste 0 1020.6 0.6 90
2020-04-06 23:00:00 13.6 6 Sudeste 12 Sur 0 1020.7 1.2 89
2020-04-06 22:00:00 14.1 8 Sudeste 14 Sur 0 1020.5 1.4 85
2020-04-06 21:00:00 14.4 8 Sudeste 18 Sur 0 1020 1.3 82
2020-04-06 20:00:00 15.1 12 Sur 23 Sudeste 0 1019.5 0.8 76
2020-04-06 19:00:00 15.5 12 Sudeste 26 Sudeste 0 1019.1 0.3 71
2020-04-06 18:00:00 16 14 Sudeste 26 Este 0 1018.7 -0.4 68
2020-04-06 17:00:00 16.4 15 Sudeste 26 Sudeste 0 1018.7 -0.3 71
2020-04-06 16:00:00 16.7 15 Sudeste 31 Sudeste 0 1018.8 -0.2 70
2020-04-06 15:00:00 17.4 16 Sudeste 33 Sudeste 0 1019.1 0.1 67
2020-04-06 14:00:00 18.7 16 Sudeste 32 Este 0 1019 0.1 62
2020-04-06 13:00:00 18.6 17 Sudeste 33 Sudeste 0 1019 0.8 59
2020-04-06 12:00:00 18.4 13 Sudeste 24 Sur 0 1019 1.3 62
2020-04-06 11:00:00 16 11 Sudeste 23 Sudeste 0 1018.9 1.9 79
2020-04-06 10:00:00 11.9 2 Sudoeste 5 Sudoeste 0 1018.2 1.7 91
2020-04-06 09:00:00 10.5 2 Sur 4 Sur 0 1017.7 1.5 93
2020-04-06 08:00:00 9.1 2 Sudoeste 6 Sudoeste 0 1017 0.6 96
2020-04-06 07:00:00 9 6 Sudoeste 9 Sur 0 1016.5 0 95
2020-04-06 06:00:00 9.3 5 Sur 14 Sur 0 1016.2 -0.4 96
2020-04-06 05:00:00 9.3 6 Sur 13 Sur 0 1016.4 -0.1 96
2020-04-06 04:00:00 9.5 8 Sur 13 Sur 0 1016.5 0 94
2020-04-06 03:00:00 10.2 8 Sur 14 Sur 0 1016.6 0.4 94
2020-04-06 02:00:00 10.9 7 Sur 15 Sur 0 1016.5 0.7 92
2020-04-06 01:00:00 11 9 Sur 15 Sur 0 1016.5 0.8 93
2020-04-06 00:00:00 11.3 8 Sur 11 Sur 0 1016.2 1.1 91
2020-04-05 23:00:00 12.2 8 Sudeste 13 Sudeste 0 1015.8 0.8 88
2020-04-05 22:00:00 13.2 9 Sudeste 15 Sudeste 0 1015.7 1.1 84
2020-04-05 21:00:00 13.7 9 Sudeste 21 Sudeste 0 1015.1 0.3 84
2020-04-05 20:00:00 14.4 13 Sudeste 26 Sudeste 0 1015 -0.1 80
2020-04-05 19:00:00 15.1 11 Sudeste 24 Sudeste 0 1014.6 -0.8 74
2020-04-05 18:00:00 16 9 Sudeste 24 Sur 0 1014.8 -1 71
2020-04-05 17:00:00 17.7 13 Sudeste 29 Sudeste 0 1015.1 -0.8 59
2020-04-05 16:00:00 17.5 15 Sudeste 30 Sudeste 0 1015.4 -1.1 62
2020-04-05 15:00:00 17.4 15 Sudeste 34 Sudeste 0 1015.8 -0.9 64
2020-04-05 14:00:00 20.1 17 Sudeste 31 Sudeste 0 1015.9 -0.9 57
2020-04-05 13:00:00 19.5 13 Sudeste 28 Sur 0 1016.5 -0.4 55
2020-04-05 12:00:00 18 12 Sudeste 26 Sudeste 0 1016.7 0 62
2020-04-05 11:00:00 16.3 12 Sudeste 23 Sur 0 1016.8 0.6 74
2020-04-05 10:00:00 12.1 4 Sur 7 Sudoeste 0 1016.9 1.4 82
2020-04-05 09:00:00 9 0 Calma 4 Este 0 1016.7 1.4 95
2020-04-05 08:00:00 8.2 0 Calma 3 Sur 0 1016.2 0.8 96
2020-04-05 07:00:00 7.9 2 Sur 5 Sur 0 1015.5 -0.3 97
2020-04-05 06:00:00 7.9 3 Oeste 9 Noroeste 0 1015.3 -0.7 97
2020-04-05 05:00:00 7.7 3 Sudeste 6 Noroeste 0 1015.4 -0.8 95
2020-04-05 04:00:00 8.1 4 Noroeste 6 Noroeste 0 1015.8 -0.4 94
2020-04-05 03:00:00 9.1 3 Noroeste 11 Sudoeste 0 1016 0.1 93
2020-04-05 02:00:00 9.9 8 Sudoeste 12 Sudoeste 0 1016.2 0.2 93
2020-04-05 01:00:00 10.8 8 Sudeste 20 Sudeste 0 1016.2 0.4 92
2020-04-05 00:00:00 10.8 11 Sudeste 18 Sudeste 0 1015.9 0.8 93
2020-04-04 23:00:00 11 10 Sudeste 15 Sur 0 1016 1.6 91
2020-04-04 22:00:00 11.8 9 Sudeste 13 Sudeste 0 1015.8 1.5 88
2020-04-04 21:00:00 13 8 Sudeste 25 Sur 0 1015.1 1.1 83
2020-04-04 20:00:00 14.6 12 Sudeste 27 Sudeste 0 1014.4 0.3 75
2020-04-04 19:00:00 16.4 16 Sudeste 31 Sudeste 0 1014.3 -0.2 59
2020-04-04 18:00:00 17.1 14 Sudeste 35 Sudeste 0 1014 -0.8 65
2020-04-04 17:00:00 17.2 15 Sudeste 36 Sudeste 0 1014.1 -1 68
2020-04-04 16:00:00 19 16 Sudeste 35 Este 0 1014.5 -0.9 59
2020-04-04 15:00:00 18.8 17 Sudeste 30 Este 0 1014.8 -0.9 58
2020-04-04 14:00:00 19.1 16 Sudeste 31 Sudeste 0 1015.1 -0.6 54
2020-04-04 13:00:00 18.6 10 Sudeste 20 Sur 0 1015.4 0 62
2020-04-04 12:00:00 17.7 11 Sur 16 Sur 0 1015.7 0.5 61
2020-04-04 11:00:00 14.3 4 Sur 8 Sudeste 0 1015.7 1.2 72
2020-04-04 10:00:00 11.2 3 Este 6 Sudeste 0 1015.4 1.2 81
2020-04-04 09:00:00 7.2 2 Norte 9 Norte 0 1015.2 1.3 98
2020-04-04 08:00:00 5.1 6 Norte 9 Noroeste 0 1014.5 0.5 98
2020-04-04 07:00:00 5.4 3 Norte 9 Noroeste 0 1014.2 0.1 96
2020-04-04 06:00:00 5.7 4 Norte 5 Nordeste 0 1013.9 -0.1 96
2020-04-04 05:00:00 6.3 2 Noroeste 7 Noroeste 0 1014 -0.1 96
2020-04-04 04:00:00 6.4 3 Norte 7 Norte 0 1014.1 0.2 94
2020-04-04 03:00:00 7.2 5 Norte 7 Norte 0 1014 0.3 93
2020-04-04 02:00:00 8 5 Norte 7 Noroeste 0 1014.1 0.9 90
2020-04-04 01:00:00 8.9 4 Norte 9 Noroeste 0 1013.9 1.1 84
2020-04-04 00:00:00 9.8 3 Oeste 7 Noroeste 0 1013.7 1.5 81
2020-04-03 23:00:00 10.3 3 Noroeste 9 Sudeste 0 1013.2 1.2 78
2020-04-03 22:00:00 11.3 5 Sudeste 12 Sudeste 0 1012.8 1.1 71
2020-04-03 21:00:00 12.3 7 Sur 15 Sur 0 1012.2 0.9 73
2020-04-03 20:00:00 14.2 6 Sudeste 17 Sudeste 0 1012 0.7 65
2020-04-03 19:00:00 15.5 9 Sudeste 16 Sudeste 0 1011.7 0.3 62
2020-04-03 18:00:00 16.5 8 Sudeste 23 Sur 0 1011.3 -0.2 60
2020-04-03 17:00:00 17.8 12 Sudeste 23 Sudeste 0 1011.3 -0.5 56
2020-04-03 16:00:00 18.4 3 Sur 17 Nordeste 0 1011.4 -0.8 42
2020-04-03 15:00:00 20.3 10 Nordeste 24 Nordeste 0 1011.5 -0.9 44
2020-04-03 14:00:00 19.3 11 Nordeste 24 Nordeste 0 1011.8 -0.6 46
2020-04-03 13:00:00 16.6 10 Norte 27 Norte 0 1012.2 0.4 52
2020-04-03 12:00:00 15 12 Norte 33 Noroeste 0 1012.4 1.2 55
2020-04-03 11:00:00 13.8 13 Norte 36 Noroeste 0 1012.4 1.8 58
2020-04-03 10:00:00 10.9 13 Norte 31 Noroeste 0 1011.8 1.9 62
2020-04-03 09:00:00 10.1 13 Noroeste 30 Norte 0 1011.2 1.5 62
2020-04-03 08:00:00 9.8 11 Norte 34 Noroeste 0 1010.6 1.1 66
2020-04-03 07:00:00 9.9 15 Norte 34 Noroeste 0 1009.9 0.3 68
2020-04-03 06:00:00 10.1 15 Noroeste 40 Noroeste 0 1009.7 -0.1 68
2020-04-03 05:00:00 9.8 10 Noroeste 30 Noroeste 0 1009.5 -0.6 70
2020-04-03 04:00:00 10.2 15 Noroeste 33 Noroeste 0 1009.6 -0.6 72
2020-04-03 03:00:00 9.8 14 Noroeste 27 Noroeste 0 1009.8 -0.5 82
2020-04-03 02:00:00 10.8 4 Norte 7 Norte 0 1010.1 0.1 98
2020-04-03 01:00:00 10.9 3 Sur 4 Sudeste 0.4 1010.2 0.5 97
2020-04-03 00:00:00 11.1 0 Calma 9 Sudoeste 1.6 1010.3 1.3 96
2020-04-02 23:00:00 11.4 5 Sudoeste 11 Sudoeste 0 1010 1.7 91
2020-04-02 22:00:00 11.5 8 Sudoeste 12 Sudoeste 0 1009.7 1.9 91
2020-04-02 21:00:00 11.6 5 Sur 13 Sur 0 1009 1.7 92
2020-04-02 20:00:00 12.1 7 Sur 16 Sudeste 0 1008.3 1 89
2020-04-02 19:00:00 12.7 7 Sur 17 Sur 0 1007.8 0.5 90
2020-04-02 18:00:00 13.5 8 Sur 16 Sur 0 1007.3 -0.1 87
2020-04-02 17:00:00 14.6 3 Sudeste 10 Nordeste 0 1007.3 -0.2 75
2020-04-02 16:00:00 14.5 6 Norte 24 Norte 0 1007.3 -0.5 81
2020-04-02 15:00:00 16.5 10 Norte 22 Norte 0 1007.4 -0.4 69
2020-04-02 14:00:00 16.3 10 Norte 23 Norte 0 1007.5 -0.1 74
2020-04-02 13:00:00 13.6 10 Norte 21 Norte 0 1007.8 0.6 84
2020-04-02 12:00:00 12.6 9 Norte 23 Nordeste 0 1007.8 1 90
2020-04-02 11:00:00 11.6 11 Norte 23 Nordeste 0.2 1007.6 1.2 96
2020-04-02 10:00:00 10.8 9 Norte 22 Norte 0 1007.2 0.9 98
2020-04-02 09:00:00 10 10 Norte 21 Norte 0 1006.8 0.4 100
2020-04-02 08:00:00 9.9 9 Norte 23 Norte 0 1006.4 -0.1 100
2020-04-02 07:00:00 9.6 4 Norte 9 Nordeste 0 1006.3 -0.9 100
2020-04-02 06:00:00 9.6 6 Norte 11 Norte 0 1006.4 -1.2 100
2020-04-02 05:00:00 9.6 6 Noroeste 9 Norte 0 1006.5 -1.6 100
2020-04-02 04:00:00 9.7 4 Norte 11 Norte 0 1007.2 -1.4 100
2020-04-02 03:00:00 9.7 5 Norte 10 Norte 0 1007.6 -1.3 100
2020-04-02 02:00:00 9.7 3 Noroeste 5 Noroeste 0 1008.1 -0.4 100
2020-04-02 01:00:00 9.7 4 Noroeste 8 Noroeste 0 1008.6 0.3 100
2020-04-02 00:00:00 9.7 5 Noroeste 9 Oeste 0 1008.9 1.3 100
2020-04-01 23:00:00 9.7 6 Noroeste 9 Noroeste 0 1008.5 0.9 99
2020-04-01 22:00:00 9.9 5 Nordeste 19 Norte 0.4 1008.3 1 99
2020-04-01 21:00:00 9.9 6 Norte 14 Norte 4.4 1007.6 0.1 99
2020-04-01 20:00:00 10.1 5 Norte 21 Norte 2.8 1007.6 0.5 99
2020-04-01 19:00:00 10 9 Norte 22 Nordeste 2.2 1007.3 0.8 99
2020-04-01 18:00:00 10.4 9 Norte 16 Norte 5 1007.5 0.5 98
2020-04-01 17:00:00 10.7 5 Norte 29 Noroeste 4.2 1007.1 -0.3 98
2020-04-01 16:00:00 10.6 16 Norte 34 Noroeste 4.2 1006.5 -1.3 97
2020-04-01 15:00:00 10.7 14 Noroeste 40 Norte 1.6 1007 -1.6 97
2020-04-01 14:00:00 10.8 14 Noroeste 33 Nordeste 7.2 1007.4 -1 97
2020-04-01 13:00:00 10.6 10 Noroeste 27 Norte 5.6 1007.8 -0.1 97
2020-04-01 12:00:00 10.7 9 Oeste 23 Nordeste 2.4 1008.6 0.8 96
2020-04-01 11:00:00 10.9 8 Norte 44 Nordeste 0.8 1008.4 0.8 95
2020-04-01 10:00:00 11.3 19 Nordeste 55 Este 0.8 1007.9 0.3 94
2020-04-01 09:00:00 11.4 13 Nordeste 46 Nordeste 0.4 1007.8 -0.2 96
2020-04-01 08:00:00 11 9 Nordeste 26 Nordeste 0.2 1007.6 -0.8 96
2020-04-01 07:00:00 11.2 8 Oeste 26 Oeste 0 1007.6 -1.1 93
2020-04-01 06:00:00 11.1 8 Nordeste 24 Nordeste 0 1008 -1 94
2020-04-01 05:00:00 11 4 Noroeste 24 Noroeste 0 1008.4 -1.2 92
2020-04-01 04:00:00 10.1 5 Norte 19 Norte 0 1008.7 -1.2 99
2020-04-01 03:00:00 8.9 4 Nordeste 18 Noroeste 0.4 1009 -1.1 99
2020-04-01 02:00:00 8.4 3 Norte 11 Este 0.4 1009.6 -0.7 100
2020-04-01 01:00:00 7.9 4 Este 15 Noroeste 0 1009.9 0 99
2020-04-01 00:00:00 7.9 4 Norte 17 Noroeste 0.2 1010.1 0.6 99
2020-03-31 23:00:00 7.6 6 Norte 12 Noroeste 0.6 1010.3 1.6 99
2020-03-31 22:00:00 7.3 5 Norte 10 Norte 1 1009.9 1.5 99
2020-03-31 21:00:00 7.3 4 Norte 15 Noroeste 0.8 1009.5 1.3 99
2020-03-31 20:00:00 7.3 4 Norte 15 Norte 0.8 1008.7 0.8 98
2020-03-31 19:00:00 7.1 6 Norte 17 Norte 1 1008.4 0.8 98
2020-03-31 18:00:00 7.4 6 Norte 19 Norte 3 1008.2 0.5 98
2020-03-31 17:00:00 7.5 7 Norte 18 Norte 0.4 1007.9 0 98
2020-03-31 16:00:00 7.6 7 Norte 24 Norte 1 1007.6 -0.8 97
2020-03-31 15:00:00 7.5 13 Noroeste 27 Noroeste 0.8 1007.7 -0.9 96
2020-03-31 14:00:00 7.3 12 Norte 30 Noroeste 0.6 1007.9 -0.8 96
2020-03-31 13:00:00 7.2 13 Norte 23 Norte 1.4 1008.4 0 96
2020-03-31 12:00:00 7 12 Norte 24 Noroeste 0.2 1008.6 0.3 95
2020-03-31 11:00:00 6.7 9 Norte 30 Noroeste 0 1008.7 0.6 97
2020-03-31 10:00:00 6.1 9 Norte 21 Norte 0.4 1008.4 0.6 97
2020-03-31 09:00:00 5.8 8 Norte 27 Norte 3 1008.3 0.4 98
2020-03-31 08:00:00 5.4 11 Norte 28 Norte 0.8 1008.1 -0.5 96
2020-03-31 07:00:00 5.2 13 Norte 28 Norte 0.8 1007.8 -1.4 96
2020-03-31 06:00:00 5.3 12 Norte 31 Norte 1 1007.9 -1.7 94
2020-03-31 05:00:00 5.7 10 Norte 26 Noroeste 0.2 1008.6 -1.3 87
2020-03-31 04:00:00 6 10 Norte 21 Norte 0 1009.2 -0.9 84
2020-03-31 03:00:00 6 9 Norte 22 Norte 0 1009.6 -0.9 81
2020-03-31 02:00:00 6.1 11 Norte 23 Norte 0 1009.9 -0.8 82
2020-03-31 01:00:00 6.5 8 Norte 18 Norte 0 1010.1 -0.7 80
2020-03-31 00:00:00 6.6 7 Norte 16 Norte 0.2 1010.5 -0.2 81
2020-03-30 23:00:00 6.6 10 Norte 20 Norte 0 1010.7 0.5 78
2020-03-30 22:00:00 6.5 11 Norte 24 Norte 0.2 1010.8 0.5 80
2020-03-30 21:00:00 6.9 10 Norte 21 Norte 0.2 1010.7 0.3 76
2020-03-30 20:00:00 7.2 10 Norte 24 Nordeste 0 1010.2 -0.2 74
2020-03-30 19:00:00 6.8 10 Norte 20 Norte 0.4 1010.3 -1.1 83
2020-03-30 18:00:00 7 10 Norte 23 Norte 0.4 1010.4 -1.6 83
2020-03-30 17:00:00 6.9 9 Norte 23 Noroeste 0.2 1010.4 -1 82
2020-03-30 16:00:00 6.5 10 Norte 20 Norte 1 1011.4 0.3 87
2020-03-30 15:00:00 6.8 16 Noroeste 41 Oeste 0 1012 0.7 73
2020-03-30 14:00:00 9.7 13 Noroeste 40 Noroeste 0 1011.4 0.1 46
2020-03-30 13:00:00 11 17 Noroeste 53 Noroeste 0 1011.1 0.8 36
2020-03-30 12:00:00 10.5 22 Noroeste 57 Noroeste 0 1011.3 1.7 36
2020-03-30 11:00:00 10.1 14 Noroeste 41 Norte 0 1011.3 2.6 40
2020-03-30 10:00:00 10.3 13 Norte 30 Noroeste 0 1010.3 1.9 40
2020-03-30 09:00:00 10.1 10 Noroeste 47 Norte 0 1009.6 1 42
2020-03-30 08:00:00 10.3 24 Norte 48 Noroeste 0 1008.7 -0.2 45
2020-03-30 07:00:00 11.1 24 Noroeste 48 Noroeste 0 1008.4 -0.6 49
2020-03-30 06:00:00 11.2 19 Norte 47 Noroeste 0 1008.6 -0.8 52
2020-03-30 05:00:00 11.6 14 Norte 42 Noroeste 0 1008.9 -0.4 54
2020-03-30 04:00:00 12.1 19 Noroeste 46 Noroeste 0 1009 -0.6 56
2020-03-30 03:00:00 12.3 19 Noroeste 45 Noroeste 0 1009.4 -0.2 55
2020-03-30 02:00:00 12.7 17 Noroeste 42 Noroeste 0 1009.3 -0.8 53
2020-03-30 01:00:00 13 19 Norte 44 Noroeste 0 1009.6 -0.2 52
2020-03-30 00:00:00 13.4 16 Noroeste 39 Noroeste 0 1009.6 0.5 50
2020-03-29 23:00:00 14.3 10 Noroeste 41 Noroeste 0 1010.1 1.7 48
2020-03-29 22:00:00 15.7 9 Noroeste 33 Noroeste 0 1009.8 1.7 45
2020-03-29 21:00:00 17 14 Oeste 30 Oeste 0 1009.1 1 39
2020-03-29 20:00:00 18.8 15 Oeste 30 Oeste 0 1008.4 0 29
2020-03-29 19:00:00 20.6 16 Noroeste 42 Oeste 0 1008.1 -0.8 23
2020-03-29 18:00:00 22.2 16 Oeste 36 Oeste 0 1008.1 -1.3 24
2020-03-29 17:00:00 22.5 17 Noroeste 37 Oeste 0 1008.4 -1.8 23
2020-03-29 16:00:00 22.5 17 Noroeste 37 Noroeste 0 1008.9 -1.9 25
2020-03-29 15:00:00 22.4 15 Noroeste 42 Noroeste 0 1009.4 -1.9 29
2020-03-29 14:00:00 21.8 16 Noroeste 32 Oeste 0 1010.2 -1.5 30
2020-03-29 13:00:00 21.5 10 Norte 27 Noroeste 0 1010.8 -0.9 34
2020-03-29 12:00:00 20 8 Norte 28 Noroeste 0 1011.3 -0.4 36
2020-03-29 11:00:00 17.8 17 Noroeste 39 Noroeste 0 1011.7 0.3 37
2020-03-29 10:00:00 15.2 19 Noroeste 34 Oeste 0 1011.7 0.6 40
2020-03-29 09:00:00 13 16 Norte 30 Norte 0 1011.7 0.5 49
2020-03-29 08:00:00 12.9 10 Norte 23 Norte 0 1011.4 -0.1 53
2020-03-29 07:00:00 11.8 9 Norte 19 Norte 0 1011.1 -0.9 64
2020-03-29 06:00:00 9.7 7 Noroeste 16 Norte 0 1011.2 -1.4 84
2020-03-29 05:00:00 9.7 4 Oeste 6 Oeste 0 1011.5 -1.7 88
2020-03-29 03:00:00 10.2 3 Norte 6 Noroeste 0 1012.6 -0.8 82
2020-03-29 01:00:00 10.3 5 Norte 7 Norte 0 1013.2 -0.3 83
2020-03-29 00:00:00 10.6 2 Oeste 5 Norte 0 1013.4 0 81
2020-03-28 23:00:00 11.3 2 Nordeste 8 Este 0 1013.4 0.7 76
2020-03-28 22:00:00 11.7 3 Nordeste 8 Noroeste 0 1013.5 1.1 73
2020-03-28 21:00:00 12.4 2 Nordeste 10 Sudeste 0 1013.4 1.6 69
2020-03-28 20:00:00 13.8 6 Sudeste 12 Sudeste 0 1012.7 1.1 62
2020-03-28 19:00:00 15.5 9 Sudeste 20 Sudeste 0 1012.4 0.6 58
2020-03-28 18:00:00 18.6 13 Sudeste 23 Sudeste 0 1011.8 -0.6 47
2020-03-28 17:00:00 20.2 4 Nordeste 17 Norte 0 1011.6 -1.2 35
2020-03-28 16:00:00 20.7 6 Noroeste 17 Norte 0 1011.8 -1.5 36
2020-03-28 15:00:00 20 6 Norte 19 Nordeste 0 1012.4 -1.2 34
2020-03-28 14:00:00 19.6 9 Norte 25 Norte 0 1012.8 -0.7 40
2020-03-28 13:00:00 18.4 9 Nordeste 26 Nordeste 0 1013.3 -0.3 43
2020-03-28 12:00:00 18.2 12 Nordeste 24 Nordeste 0 1013.6 0.5 42
2020-03-28 11:00:00 18.2 10 Norte 23 Norte 0 1013.5 0.9 45
2020-03-28 10:00:00 14.1 10 Norte 24 Norte 0 1013.6 1.4 57
2020-03-28 09:00:00 10.9 10 Norte 19 Norte 0 1013.1 1.1 71
2020-03-28 08:00:00 9.8 8 Norte 15 Norte 0 1012.6 0.7 77
2020-03-28 07:00:00 9.3 7 Norte 15 Norte 0 1012.2 0.1 79
2020-03-28 06:00:00 8.9 8 Norte 16 Norte 0 1012 -0.2 84
2020-03-28 05:00:00 9 4 Norte 11 Noroeste 0 1011.9 -0.6 86
2020-03-28 04:00:00 8.9 7 Norte 11 Norte 0 1012.1 -0.4 88
2020-03-28 03:00:00 9.1 5 Norte 8 Noroeste 0 1012.2 -0.2 88
2020-03-28 02:00:00 9.4 5 Noroeste 6 Noroeste 0 1012.5 0.4 83
2020-03-28 01:00:00 9.5 4 Nordeste 6 Noroeste 0 1012.5 1 84
2020-03-28 00:00:00 9.8 5 Noroeste 8 Oeste 0 1012.4 1.5 77
2020-03-27 23:00:00 10.1 4 Oeste 9 Oeste 0 1012.1 2 72
2020-03-27 22:00:00 10.2 5 Este 9 Sudeste 0 1011.5 2.2 69
2020-03-27 21:00:00 10.4 5 Sudeste 11 Sudeste 0 1010.9 2.2 67
2020-03-27 20:00:00 11.5 9 Sudeste 15 Sudeste 0 1010.1 1.7 60
2020-03-27 19:00:00 13.1 9 Sudeste 19 Sudeste 0 1009.3 0.7 48
2020-03-27 18:00:00 15.2 9 Sudeste 19 Sudeste 0 1008.7 -0.3 51
2020-03-27 17:00:00 17.2 10 Sudeste 23 Sudeste 0 1008.4 -0.9 42
2020-03-27 16:00:00 17.8 10 Sur 19 Sudeste 0 1008.6 -0.8 33
2020-03-27 15:00:00 17.8 6 Nordeste 18 Nordeste 0 1009 -0.9 37
2020-03-27 14:00:00 17.9 8 Nordeste 25 Norte 0 1009.3 -0.9 39
2020-03-27 13:00:00 16.8 9 Norte 27 Nordeste 0 1009.4 -0.8 47
2020-03-27 12:00:00 15.6 10 Nordeste 28 Nordeste 0 1009.9 -0.1 53
2020-03-27 11:00:00 13.8 14 Norte 26 Norte 0 1010.2 0.7 61
2020-03-27 10:00:00 11.7 11 Norte 30 Nordeste 0 1010.2 1 73
2020-03-27 09:00:00 9.1 10 Norte 24 Norte 0 1010 1 84
2020-03-27 08:00:00 6.2 9 Norte 21 Norte 0 1009.5 0.8 100
2020-03-27 07:00:00 5.3 7 Norte 14 Noroeste 0 1009.2 0.8 98
2020-03-27 06:00:00 5.9 4 Nordeste 12 Noroeste 0 1009 0.4 98
2020-03-27 05:00:00 6.1 8 Noroeste 15 Noroeste 0 1008.7 -0.1 99
2020-03-27 04:00:00 6 8 Noroeste 14 Norte 0 1008.4 -0.5 99
2020-03-27 03:00:00 6.2 6 Norte 12 Norte 0 1008.6 -0.4 98
2020-03-27 02:00:00 6.7 4 Norte 9 Nordeste 0 1008.8 0 98
2020-03-27 01:00:00 6.7 2 Oeste 8 Oeste 0 1008.9 0.1 98
2020-03-27 00:00:00 6.3 2 Este 6 Noroeste 0 1009 0.5 98
2020-03-26 23:00:00 6.6 3 Norte 9 Noroeste 0 1008.8 1.1 97
2020-03-26 22:00:00 6.9 2 Norte 6 Norte 0 1008.8 1.2 97
2020-03-26 21:00:00 6.9 4 Nordeste 13 Oeste 0 1008.5 1.7 96
2020-03-26 20:00:00 6.8 8 Oeste 10 Oeste 0.2 1007.7 2.7 96
2020-03-26 19:00:00 7 7 Norte 19 Noroeste 1.4 1007.6 4 96
2020-03-26 18:00:00 7.3 11 Norte 30 Norte 3.8 1006.8 3.5 93
2020-03-26 17:00:00 10.4 11 Nordeste 27 Este 0 1005 2 72
2020-03-26 16:00:00 11.5 5 Norte 30 Este 0 1003.6 0.2 61
2020-03-26 15:00:00 12.2 12 Este 31 Este 0 1003.3 0.6 61
2020-03-26 14:00:00 11.9 8 Norte 33 Oeste 0 1003 0.2 65
2020-03-26 13:00:00 10.1 18 Oeste 43 Noroeste 0.2 1003.4 0.5 74
2020-03-26 12:00:00 15.8 10 Norte 41 Norte 0 1002.7 -0.1 47
2020-03-26 11:00:00 15.1 19 Norte 46 Norte 0 1002.8 -0.4 47
2020-03-26 10:00:00 13.3 13 Norte 32 Norte 0 1002.9 -0.8 57
2020-03-26 09:00:00 11.2 17 Noroeste 35 Norte 0 1002.8 -1.7 62
2020-03-26 08:00:00 9.7 8 Noroeste 41 Noroeste 0 1003.2 -1.7 65
2020-03-26 07:00:00 8.1 12 Noroeste 31 Noroeste 0 1003.7 -1.9 71
2020-03-26 06:00:00 7.3 6 Norte 13 Nordeste 0 1004.5 -1.6 89
2020-03-26 05:00:00 7.6 5 Norte 17 Norte 0 1004.9 -1.9 87
2020-03-26 04:00:00 7.7 5 Norte 13 Norte 0 1005.6 -2.3 90
2020-03-26 03:00:00 7.7 6 Noroeste 10 Norte 0 1006.1 -2.7 90
2020-03-26 02:00:00 8 5 Norte 8 Norte 0 1006.8 -2.9 90
2020-03-26 01:00:00 8.3 3 Norte 5 Norte 0 1007.9 -2.1 88
2020-03-26 00:00:00 8.5 0 Calma 6 Sur 0 1008.8 -1.6 86
2020-03-25 23:00:00 8.7 3 Sudoeste 12 Sur 0 1009.7 -0.8 80
2020-03-25 22:00:00 8.8 6 Sudeste 9 Sur 0 1010 -0.7 83
2020-03-25 21:00:00 8.9 4 Sudeste 11 Sur 0 1010.4 -0.5 81
2020-03-25 20:00:00 9 7 Sudeste 11 Sudeste 0 1010.5 -0.6 82
2020-03-25 19:00:00 9.6 6 Sudeste 12 Sudeste 0 1010.7 -1.2 77
2020-03-25 18:00:00 10.8 8 Sur 17 Sur 0 1010.9 -1.6 71
2020-03-25 17:00:00 12.4 9 Sur 15 Sur 0 1011.1 -2 66
2020-03-25 16:00:00 11.2 6 Sur 11 Sur 0 1011.9 -1.8 67
2020-03-25 15:00:00 10.2 7 Sudoeste 10 Sudoeste 0 1012.5 -1.5 71
2020-03-25 14:00:00 9.6 4 Sur 13 Oeste 0 1013.1 -0.8 79
2020-03-25 13:00:00 8.9 9 Oeste 17 Este 0.2 1013.7 -0.1 84
2020-03-25 12:00:00 8.9 4 Nordeste 12 Este 0.2 1014 0.3 86
2020-03-25 11:00:00 9.3 2 Norte 13 Oeste 0 1013.9 0.4 87
2020-03-25 10:00:00 9.1 5 Oeste 12 Noroeste 0 1013.8 0.6 88
2020-03-25 09:00:00 8.5 6 Oeste 18 Noroeste 0.8 1013.7 0.6 90
2020-03-25 08:00:00 8.6 8 Noroeste 12 Noroeste 0 1013.5 0.6 84
2020-03-25 07:00:00 8.8 3 Este 13 Nordeste 0 1013.2 -0.1 76
2020-03-25 06:00:00 9.1 3 Sudeste 7 Sur 0 1013.1 -0.6 79
2020-03-25 05:00:00 9.3 4 Este 9 Nordeste 0 1012.9 -1.3 78
2020-03-25 04:00:00 9.5 2 Sur 9 Este 0 1013.3 -0.9 78
2020-03-25 03:00:00 9.7 5 Nordeste 12 Este 0.2 1013.7 -0.6 80
2020-03-25 02:00:00 10.5 5 Este 23 Este 0 1014.2 -0.4 80
2020-03-25 01:00:00 11.2 5 Este 18 Sudeste 0 1014.2 -0.5 70
2020-03-25 00:00:00 11.3 5 Este 11 Nordeste 0 1014.3 -0.3 72
2020-03-24 23:00:00 11.4 5 Sur 19 Nordeste 0 1014.6 0.3 72
2020-03-24 22:00:00 11.4 5 Sudoeste 21 Este 0 1014.7 0.7 77
2020-03-24 21:00:00 11.7 5 Este 14 Este 0 1014.6 1 77
2020-03-24 20:00:00 12 3 Sudeste 12 Sur 0 1014.3 1 73
2020-03-24 19:00:00 12.5 3 Sudoeste 17 Este 0 1014 0.1 76
2020-03-24 18:00:00 12.9 8 Este 19 Este 0 1013.6 -0.7 73
2020-03-24 17:00:00 13.7 3 Norte 22 Este 0 1013.3 -1.4 65
2020-03-24 16:00:00 13.8 9 Este 26 Sudeste 0 1013.9 -1.4 65
2020-03-24 15:00:00 14.1 5 Sudeste 18 Sudeste 0 1014.3 -1.3 60
2020-03-24 14:00:00 14.1 7 Este 26 Este 0 1014.7 -1 63
2020-03-24 13:00:00 13.9 13 Este 31 Este 0 1015.3 -0.3 62
2020-03-24 12:00:00 13.4 8 Este 30 Este 0 1015.6 0 67
2020-03-24 11:00:00 13.9 8 Este 18 Este 0 1015.7 0.3 66
2020-03-24 10:00:00 13.2 5 Nordeste 13 Nordeste 0 1015.6 0.7 73
2020-03-24 09:00:00 12.2 5 Oeste 12 Oeste 0 1015.6 0.9 74
2020-03-24 08:00:00 11.9 5 Noroeste 10 Norte 0 1015.4 0.9 81
2020-03-24 07:00:00 12 4 Norte 17 Norte 0 1014.9 0.1 81
2020-03-24 06:00:00 12.2 4 Noroeste 17 Norte 0 1014.7 0.2 78
2020-03-24 05:00:00 12.2 4 Noroeste 10 Oeste 0 1014.5 -0.2 82
2020-03-24 04:00:00 12.4 4 Nordeste 15 Norte 0 1014.8 -0.2 82
2020-03-24 03:00:00 12.4 6 Noroeste 26 Nordeste 0 1014.5 -0.6 88
2020-03-24 02:00:00 12.6 10 Nordeste 23 Nordeste 0.2 1014.7 -0.5 90
2020-03-24 01:00:00 12.9 6 Sudoeste 15 Nordeste 0 1015 -0.1 85
2020-03-24 00:00:00 13.1 7 Nordeste 34 Nordeste 0 1015.1 0.1 85
2020-03-23 23:00:00 13.3 6 Nordeste 26 Sudeste 0 1015.2 0.7 84
2020-03-23 22:00:00 13.5 12 Este 31 Este 0 1015.1 1.1 83
2020-03-23 21:00:00 13.5 9 Este 24 Nordeste 0 1015 1.6 84
2020-03-23 20:00:00 13.6 12 Este 23 Este 0 1014.5 1.6 85
2020-03-23 19:00:00 13.8 8 Este 24 Este 0 1014 1 87
2020-03-23 18:00:00 13.8 14 Este 31 Este 0 1013.4 0.3 89
2020-03-23 17:00:00 13.8 6 Este 14 Este 0 1012.9 -0.6 93
2020-03-23 16:00:00 14.5 2 Sudoeste 9 Oeste 0 1013 -0.5 96
2020-03-23 15:00:00 14 7 Oeste 13 Oeste 1 1013.1 -0.3 97
2020-03-23 14:00:00 13.9 2 Sur 16 Este 2.4 1013.5 0 94
2020-03-23 13:00:00 14.4 5 Este 22 Este 1 1013.5 0.2 89
2020-03-23 12:00:00 16.1 9 Nordeste 25 Este 0 1013.4 0.7 83
2020-03-23 11:00:00 14.6 9 Este 23 Nordeste 0 1013.5 1.3 90
2020-03-23 10:00:00 12.8 5 Norte 12 Norte 0.2 1013.3 1.7 99
2020-03-23 09:00:00 12.2 6 Norte 14 Norte 1.4 1012.7 1.4 98
2020-03-23 08:00:00 11.9 3 Nordeste 10 Noroeste 0.2 1012.2 1.1 99
2020-03-23 07:00:00 11.5 6 Noroeste 13 Norte 0 1011.6 0.8 97
2020-03-23 06:00:00 11.2 7 Noroeste 12 Noroeste 0 1011.3 0.2 99
2020-03-23 05:00:00 11.1 4 Norte 13 Noroeste 0 1011.1 0.1 98
2020-03-23 04:00:00 11.2 6 Norte 11 Norte 0.2 1010.8 -0.5 98
2020-03-23 03:00:00 11.1 7 Norte 12 Norte 0 1011.1 -0.3 98
2020-03-23 02:00:00 11.3 5 Norte 9 Oeste 0 1011 -0.4 95
2020-03-23 01:00:00 11.4 7 Noroeste 9 Noroeste 0 1011.3 0.1 97
2020-03-23 00:00:00 11.5 2 Sudoeste 8 Este 0 1011.4 0.9 97
2020-03-22 23:00:00 11.7 6 Oeste 15 Oeste 0 1011.4 1.6 97
2020-03-22 22:00:00 11.6 5 Oeste 17 Este 0 1011.2 1.9 97
2020-03-22 21:00:00 11.5 4 Nordeste 8 Nordeste 0 1010.5 1.7 98
2020-03-22 20:00:00 11.5 5 Oeste 9 Oeste 0 1009.8 1.2 97
2020-03-22 19:00:00 11.6 4 Noroeste 6 Norte 0 1009.3 0.7 97
2020-03-22 18:00:00 12.1 3 Norte 10 Norte 0 1008.8 0 97
2020-03-22 17:00:00 11.4 8 Noroeste 12 Noroeste 3.2 1008.6 -0.5 97
2020-03-22 16:00:00 11.8 5 Nordeste 12 Nordeste 1.6 1008.6 -0.7 94
2020-03-22 15:00:00 12 4 Nordeste 11 Sudoeste 2.2 1008.8 -0.4 95
2020-03-22 14:00:00 12.5 5 Sudeste 21 Sudeste 1.4 1009.1 0.2 91
2020-03-22 13:00:00 13.5 4 Sudeste 9 Sudeste 0 1009.3 0.7 82
2020-03-22 12:00:00 12.9 2 Sudeste 5 Sudeste 0 1009.2 1.1 80
2020-03-22 11:00:00 12.8 2 Este 4 Este 0 1008.9 1 77
2020-03-22 10:00:00 12.6 2 Norte 11 Norte 0 1008.6 1.1 77
2020-03-22 09:00:00 10.4 4 Norte 13 Norte 0 1008.1 0.9 89
2020-03-22 08:00:00 8 5 Norte 9 Norte 0 1007.9 0.8 96
2020-03-22 07:00:00 7.5 5 Norte 11 Norte 0 1007.5 0.2 94
2020-03-22 06:00:00 7.8 6 Norte 11 Norte 0 1007.2 -0.4 95
2020-03-22 05:00:00 7.9 6 Norte 11 Norte 0 1007.1 -0.8 95
2020-03-22 04:00:00 8.3 3 Noroeste 5 Oeste 0 1007.3 -0.8 94
2020-03-22 03:00:00 8.4 0 Calma 5 Noroeste 0 1007.6 -1 92
2020-03-22 02:00:00 8.6 5 Noroeste 10 Noroeste 0 1007.9 -0.9 93
2020-03-22 01:00:00 9 6 Norte 7 Norte 0 1008.1 -0.7 93
2020-03-22 00:00:00 9.7 4 Norte 5 Norte 0 1008.6 -0.2 92
2020-03-21 23:00:00 10.4 3 Nordeste 7 Sur 0 1008.8 0.5 90
2020-03-21 22:00:00 11.1 4 Sudoeste 8 Sudeste 0 1008.8 1.2 88
2020-03-21 21:00:00 11.6 5 Sur 11 Sudeste 0 1008.8 1.3 85
2020-03-21 20:00:00 12.4 6 Sur 14 Sur 0 1008.3 0.9 78
2020-03-21 19:00:00 14 8 Sudeste 21 Sur 0 1007.6 0 69
2020-03-21 18:00:00 16.2 12 Sudeste 21 Sur 0 1007.5 -0.5 62
2020-03-21 17:00:00 18 12 Sudeste 23 Sudeste 0 1007.4 -1.2 53
2020-03-21 16:00:00 19.1 11 Sudeste 23 Sudeste 0 1007.6 -1.8 47
2020-03-21 15:00:00 18.2 12 Sudeste 23 Este 0 1008 -2.1 48
2020-03-21 14:00:00 18.7 10 Sudeste 19 Sudeste 0 1008.6 -1.9 50
2020-03-21 13:00:00 18.3 9 Sudeste 17 Este 0 1009.4 -1.3 51
2020-03-21 12:00:00 17.2 8 Sur 14 Sur 0 1010.1 -0.8 57
2020-03-21 11:00:00 16.1 7 Sur 11 Sur 0 1010.5 -0.2 65
2020-03-21 10:00:00 14.1 4 Nordeste 9 Este 0 1010.7 -0.1 69
2020-03-21 09:00:00 10.9 4 Nordeste 13 Norte 0 1010.9 -0.1 87
2020-03-21 08:00:00 7.6 8 Norte 14 Norte 0 1010.7 -0.3 100
2020-03-21 07:00:00 6.6 5 Norte 9 Norte 0 1010.8 -0.6 96
2020-03-21 06:00:00 6.9 4 Norte 10 Noroeste 0 1011 -0.9 96
2020-03-21 05:00:00 7.5 7 Norte 9 Norte 0 1011 -1.4 96
2020-03-21 04:00:00 8.5 4 Noroeste 5 Noroeste 0 1011.4 -1.5 96
2020-03-21 03:00:00 8.8 3 Nordeste 4 Nordeste 0 1011.9 -1.5 96
2020-03-21 02:00:00 9.1 3 Este 5 Nordeste 0 1012.4 -1.2 94
2020-03-21 01:00:00 9.8 2 Nordeste 5 Este 0 1012.9 -0.7 93
2020-03-21 00:00:00 10.6 2 Este 5 Este 0 1013.4 -0.2 92
2020-03-20 23:00:00 11.1 6 Oeste 11 Oeste 0 1013.6 0.1 89
2020-03-20 22:00:00 12 4 Oeste 6 Oeste 0 1013.6 0 88
2020-03-20 21:00:00 12.1 4 Sudoeste 7 Sudoeste 0 1013.6 0.1 88
2020-03-20 20:00:00 13 5 Sur 17 Este 0 1013.5 0 83
2020-03-20 19:00:00 14.3 4 Sudeste 16 Sudeste 0 1013.6 -0.2 75
2020-03-20 18:00:00 15 10 Este 23 Este 0 1013.5 -0.8 69
2020-03-20 17:00:00 16.4 13 Sudeste 25 Sudeste 0 1013.5 -1 61
2020-03-20 16:00:00 17.3 12 Este 27 Este 0 1013.8 -1.2 56
2020-03-20 15:00:00 17.4 12 Sudeste 26 Sudeste 0 1014.3 -1.1 57
2020-03-20 14:00:00 18 12 Sudeste 24 Sudeste 0 1014.5 -1.1 53
2020-03-20 13:00:00 18 11 Este 27 Sudeste 0 1015 -0.7 54
2020-03-20 12:00:00 18.2 9 Sudeste 21 Sudeste 0 1015.4 -0.2 52
2020-03-20 11:00:00 16.8 8 Este 22 Sudeste 0 1015.6 0.4 63
2020-03-20 10:00:00 13.9 4 Sudeste 15 Sudeste 0 1015.7 0.6 79
2020-03-20 09:00:00 12.8 4 Sur 8 Sudoeste 0 1015.6 0.6 89
2020-03-20 08:00:00 9.9 3 Sudoeste 10 Sudoeste 0 1015.2 0.1 96
2020-03-20 07:00:00 9.5 5 Sudoeste 12 Sudoeste 0 1015.1 -0.1 97
2020-03-20 06:00:00 8.9 4 Sudoeste 9 Sudoeste 0 1015 -0.6 96
2020-03-20 05:00:00 9.5 5 Sudoeste 8 Sudoeste 0 1015.1 -0.9 95
2020-03-20 04:00:00 10 7 Sudoeste 9 Sudoeste 0 1015.2 -1 95
2020-03-20 03:00:00 9.5 3 Sur 9 Sudoeste 0 1015.6 -1.2 95
2020-03-20 02:00:00 9.1 3 Sudoeste 8 Sudoeste 0 1016 -1 94
2020-03-20 01:00:00 9.6 5 Sudoeste 8 Sudoeste 0 1016.2 -0.9 93
2020-03-20 00:00:00 10.2 5 Sudoeste 6 Sudoeste 0 1016.8 -0.3 92
2020-03-19 23:00:00 10.8 3 Sudoeste 7 Sudoeste 0 1017 0.1 89
2020-03-19 22:00:00 10.9 5 Sudoeste 10 Sur 0 1017.1 0.5 89
2020-03-19 21:00:00 11.4 6 Sudoeste 10 Sudoeste 0 1017.1 0.7 86
2020-03-19 20:00:00 12.1 5 Sur 13 Sur 0 1016.9 0.3 82
2020-03-19 19:00:00 13.5 6 Sudeste 20 Sudeste 0 1016.6 -0.4 76
2020-03-19 18:00:00 15 10 Este 22 Sudeste 0 1016.4 -1.1 69
2020-03-19 17:00:00 16.4 11 Este 22 Este 0 1016.6 -1.5 63
2020-03-19 16:00:00 17 11 Este 22 Sudeste 0 1017 -1.9 61
2020-03-19 15:00:00 19 11 Sudeste 24 Sur 0 1017.5 -1.8 59
2020-03-19 14:00:00 18.8 12 Sur 21 Sudeste 0 1018.1 -1.8 58
2020-03-19 13:00:00 18.3 9 Sudeste 18 Sudeste 0 1018.9 -1 58
2020-03-19 12:00:00 17.7 10 Sur 19 Sur 0 1019.3 -0.3 63
2020-03-19 11:00:00 15.4 9 Sur 17 Sudoeste 0 1019.9 0.5 75
2020-03-19 10:00:00 13 3 Sudoeste 6 Sudoeste 0 1019.9 0.8 83
2020-03-19 09:00:00 9.4 2 Este 4 Noroeste 0 1019.6 0.4 92
2020-03-19 08:00:00 7.6 2 Noroeste 6 Norte 0 1019.4 0.2 97
2020-03-19 07:00:00 7.5 3 Norte 8 Noroeste 0 1019.1 -0.3 97
2020-03-19 06:00:00 7.4 3 Nordeste 5 Norte 0 1019.2 -0.7 96
2020-03-19 05:00:00 7.6 3 Norte 11 Noroeste 0 1019.2 -1.3 95
2020-03-19 04:00:00 7.9 4 Norte 7 Norte 0 1019.4 -1.2 94
2020-03-19 03:00:00 8.2 2 Norte 5 Norte 0 1019.9 -1.1 93
2020-03-19 02:00:00 8.6 4 Norte 5 Noroeste 0 1020.5 -0.8 92
2020-03-19 01:00:00 9.2 3 Norte 9 Norte 0 1020.6 -1 90
2020-03-19 00:00:00 9.9 4 Norte 7 Norte 0 1021 -0.3 92
2020-03-18 23:00:00 10.5 5 Norte 6 Nordeste 0 1021.3 0.3 89
2020-03-18 22:00:00 11.3 5 Sudoeste 12 Sur 0 1021.6 1 89
2020-03-18 21:00:00 11.9 8 Sudoeste 12 Sudoeste 0 1021.3 0.8 83
2020-03-18 20:00:00 13 7 Sudoeste 12 Sur 0 1021 0.3 77
2020-03-18 19:00:00 15.2 7 Sur 18 Sur 0 1020.6 -0.7 67
2020-03-18 18:00:00 17.8 9 Sur 19 Sur 0 1020.5 -1.1 56
2020-03-18 17:00:00 19.1 11 Sur 18 Sur 0 1020.7 -1.2 50
2020-03-18 16:00:00 18.9 11 Sur 19 Sur 0 1021.3 -1.4 52
2020-03-18 15:00:00 19 10 Sur 20 Sudeste 0 1021.6 -1.8 54
2020-03-18 14:00:00 19.9 6 Sur 15 Sur 0 1021.9 -2 52
2020-03-18 13:00:00 18.7 4 Oeste 9 Norte 0 1022.7 -1.2 58
2020-03-18 12:00:00 16.6 3 Noroeste 7 Noroeste 0 1023.4 -0.4 74
2020-03-18 11:00:00 14 2 Nordeste 7 Norte 0 1023.9 0.5 81
2020-03-18 10:00:00 12.1 2 Norte 7 Noroeste 0 1023.9 0.5 94
2020-03-18 09:00:00 10 4 Norte 9 Norte 0 1023.8 0.3 97
2020-03-18 08:00:00 9.1 3 Norte 11 Noroeste 0 1023.4 0.1 98
2020-03-18 07:00:00 8.9 4 Norte 8 Nordeste 0 1023.4 0.1 97
2020-03-18 06:00:00 9.2 4 Oeste 9 Oeste 0 1023.5 -0.2 97
2020-03-18 05:00:00 9.5 0 Calma 12 Norte 0 1023.3 -0.9 95
2020-03-18 04:00:00 10 4 Norte 11 Norte 0 1023.3 -1.2 96
2020-03-18 03:00:00 10.3 5 Norte 9 Norte 0 1023.7 -1 95
2020-03-18 02:00:00 10.5 5 Norte 8 Noroeste 0 1024.2 -0.7 95
2020-03-18 01:00:00 10.8 6 Noroeste 9 Noroeste 0 1024.5 -0.4 94
2020-03-18 00:00:00 11.3 5 Norte 8 Norte 0 1024.7 0.3 93
2020-03-17 23:00:00 11.7 4 Norte 5 Norte 0 1024.9 1 91
2020-03-17 22:00:00 12.2 3 Sudoeste 7 Oeste 0 1024.9 1.2 87
2020-03-17 21:00:00 12.6 5 Sudoeste 11 Oeste 0 1024.4 1.1 87
2020-03-17 20:00:00 13.3 6 Sudoeste 13 Sudoeste 0 1023.9 0.8 85
2020-03-17 19:00:00 14.2 8 Sudoeste 15 Oeste 0 1023.7 0.6 83
2020-03-17 18:00:00 15.3 5 Este 21 Sudeste 0 1023.3 0.1 77
2020-03-17 17:00:00 15.6 3 Sudeste 19 Este 0 1023.1 -0.3 77
2020-03-17 16:00:00 15.3 5 Este 16 Nordeste 0 1023.1 -0.4 80
2020-03-17 15:00:00 15.3 5 Nordeste 21 Este 0 1023.2 0 83
2020-03-17 14:00:00 14.8 5 Este 21 Este 0 1023.4 1.1 85
2020-03-17 13:00:00 14.7 3 Oeste 24 Este 0 1023.5 1.9 86
2020-03-17 12:00:00 14.2 8 Este 27 Este 0 1023.2 2.7 88
2020-03-17 11:00:00 14.3 19 Este 42 Nordeste 0 1022.3 2.9 86
2020-03-17 10:00:00 14.3 13 Este 42 Este 0 1021.6 3.2 87
2020-03-17 09:00:00 13.8 14 Nordeste 37 Este 0 1020.5 2.9 91
2020-03-17 08:00:00 13.5 21 Nordeste 45 Nordeste 0.2 1019.4 1.8 92
2020-03-17 07:00:00 13.3 17 Nordeste 51 Este 0.4 1018.4 1.6 93
2020-03-17 06:00:00 13 17 Este 44 Este 0.2 1017.6 0.9 92
2020-03-17 05:00:00 12.9 14 Este 45 Nordeste 0 1017.6 1 91
2020-03-17 04:00:00 12.8 15 Este 41 Nordeste 0.8 1016.8 0.7 94
2020-03-17 03:00:00 13.1 14 Este 47 Este 0.2 1016.7 1.1 93
2020-03-17 02:00:00 13.3 19 Este 55 Este 0.4 1016.6 1.2 94
2020-03-17 01:00:00 13.5 19 Este 53 Nordeste 0.4 1016.1 2 94
2020-03-17 00:00:00 13.5 18 Este 49 Este 0.6 1015.6 2.5 94
2020-03-16 23:00:00 13.4 17 Este 50 Este 0.8 1015.4 3 95
2020-03-16 22:00:00 13.8 22 Este 52 Este 0.2 1014.1 3.1 93
2020-03-16 21:00:00 13.6 18 Este 59 Nordeste 0.6 1013.1 3.1 95
2020-03-16 20:00:00 13.6 17 Este 57 Este 0.4 1012.4 2.9 95
2020-03-16 19:00:00 13.9 21 Este 53 Este 0.4 1011 1.8 95
2020-03-16 18:00:00 14.1 26 Este 52 Este 1 1010 1 95
2020-03-16 17:00:00 14.5 18 Este 43 Este 0 1009.5 0.7 93
2020-03-16 16:00:00 15.2 13 Este 40 Este 0 1009.2 0 88
2020-03-16 15:00:00 15 10 Este 25 Este 0 1009 0.2 91
2020-03-16 14:00:00 14.5 15 Este 36 Este 0.6 1008.8 -0.2 91
2020-03-16 13:00:00 14.4 17 Este 46 Este 0.2 1009.2 -0.2 89
2020-03-16 12:00:00 13.3 17 Este 42 Este 0.2 1008.8 -0.1 92
2020-03-16 11:00:00 13.3 10 Este 39 Nordeste 0.6 1009 0.7 90
2020-03-16 10:00:00 13.5 11 Este 37 Este 0.4 1009.4 1.8 88
2020-03-16 09:00:00 13.6 15 Este 35 Nordeste 0 1008.9 1.2 83
2020-03-16 08:00:00 13.7 13 Este 26 Este 0 1008.3 0.6 86
2020-03-16 07:00:00 13.7 13 Este 31 Este 0 1007.6 -0.6 86
2020-03-16 06:00:00 13.8 13 Este 26 Sudeste 0 1007.7 -1.2 85
2020-03-16 05:00:00 13.7 12 Sudeste 23 Este 0 1007.7 -1.8 87
2020-03-16 04:00:00 13.7 9 Sudeste 22 Sudeste 0 1008.2 -1.8 89
2020-03-16 03:00:00 13.8 12 Sudeste 24 Sudeste 0 1008.9 -1.7 89
2020-03-16 02:00:00 13.8 10 Sudeste 19 Sudeste 0 1009.5 -1.5 85
2020-03-16 01:00:00 13.7 11 Sur 20 Sur 0 1010 -0.9 86
2020-03-16 00:00:00 13.5 12 Sur 27 Sur 0 1010.6 0 83
2020-03-15 23:00:00 13.1 13 Sur 26 Sur 0 1011 0.8 88
2020-03-15 22:00:00 13.9 15 Sur 26 Sudeste 0 1010.9 0.9 85
2020-03-15 21:00:00 13.4 13 Sur 22 Sur 0 1010.6 0.6 83
2020-03-15 20:00:00 13.7 13 Sudeste 24 Sudeste 0 1010.2 0 79
2020-03-15 19:00:00 14.7 15 Sudeste 35 Sudeste 0 1010 -0.3 76
2020-03-15 18:00:00 16.1 17 Sudeste 34 Sudeste 0 1010 -0.7 69
2020-03-15 17:00:00 16.3 20 Sudeste 43 Sudeste 0 1010.2 -1.3 67
2020-03-15 16:00:00 17.7 18 Sudeste 41 Sudeste 0 1010.3 -2.3 64
2020-03-15 15:00:00 18.2 20 Sudeste 40 Sudeste 0 1010.7 -2.8 63
2020-03-15 14:00:00 19.5 22 Sudeste 43 Sudeste 0 1011.5 -2.4 60
2020-03-15 13:00:00 19.2 16 Sudeste 33 Sudeste 0 1012.6 -1.7 62
2020-03-15 12:00:00 19.2 19 Sur 41 Sudeste 0 1013.5 -1 61
2020-03-15 11:00:00 18.4 16 Sur 36 Sur 0 1013.9 -0.2 61
2020-03-15 10:00:00 16.2 12 Sur 22 Sur 0 1014.3 0.3 71
2020-03-15 09:00:00 13.2 6 Sudeste 13 Sudeste 0 1014.5 0.4 88
2020-03-15 08:00:00 11.1 5 Sur 9 Sur 0 1014.1 -0.2 90
2020-03-15 07:00:00 10.6 3 Sur 4 Sur 0 1014 -0.6 89
2020-03-15 06:00:00 10.5 2 Sur 4 Oeste 0 1014.1 -1 88
2020-03-15 05:00:00 10.3 0 Calma 3 Este 0 1014.3 -1.2 87
2020-03-15 04:00:00 10.4 2 Norte 6 Noroeste 0 1014.6 -1.1 89
2020-03-15 03:00:00 10 0 Calma 7 Norte 0 1015.1 -0.7 90
2020-03-15 02:00:00 9.3 6 Norte 9 Norte 0 1015.5 -0.2 91
2020-03-15 01:00:00 10.5 0 Calma 8 Oeste 0 1015.7 0.3 93
2020-03-15 00:00:00 10.6 4 Sudoeste 7 Sudoeste 0 1015.8 0.7 92
2020-03-14 23:00:00 11.2 2 Sudoeste 9 Oeste 0 1015.7 0.9 88
2020-03-14 22:00:00 12.2 6 Oeste 8 Oeste 0 1015.4 1 84
2020-03-14 21:00:00 13 3 Sur 7 Sur 0 1015.1 1 80
2020-03-14 20:00:00 14.1 5 Sur 13 Sudeste 0 1014.8 1.1 73
2020-03-14 19:00:00 16.1 8 Sudeste 21 Sudeste 0 1014.4 0.5 64
2020-03-14 18:00:00 18.5 10 Sudeste 23 Sudeste 0 1014.1 0 53
2020-03-14 17:00:00 20.1 12 Sudeste 24 Sudeste 0 1013.7 -1 46
2020-03-14 16:00:00 21.5 13 Sudeste 27 Sudeste 0 1013.9 -1.4 43
2020-03-14 15:00:00 22.4 9 Sudeste 21 Sudeste 0 1014.1 -1.6 37
2020-03-14 14:00:00 23.2 6 Sudeste 15 Sudeste 0 1014.7 -1.5 32
2020-03-14 13:00:00 22.3 6 Sudeste 21 Este 0 1015.3 -0.9 33
2020-03-14 12:00:00 21.7 9 Nordeste 25 Norte 0 1015.7 0 37
2020-03-14 11:00:00 20.3 12 Nordeste 28 Nordeste 0 1016.2 1 37
2020-03-14 10:00:00 17.9 13 Nordeste 26 Nordeste 0 1016.2 1.2 43
2020-03-14 09:00:00 14.8 12 Norte 27 Norte 0 1015.7 1.1 54
2020-03-14 08:00:00 11.6 9 Norte 22 Norte 0 1015.2 1 65
2020-03-14 07:00:00 11.2 10 Norte 21 Noroeste 0 1015 0.7 67
2020-03-14 06:00:00 11.2 10 Norte 19 Norte 0 1014.6 -0.4 70
2020-03-14 05:00:00 11.6 8 Norte 19 Norte 0 1014.2 -0.8 70
2020-03-14 04:00:00 12.1 6 Norte 16 Norte 0 1014.3 -0.6 69
2020-03-14 03:00:00 12.2 6 Norte 12 Norte 0 1015 0.1 75
2020-03-14 02:00:00 12.8 2 Oeste 6 Nordeste 0 1015 0.1 76
2020-03-14 01:00:00 13.2 3 Norte 6 Norte 0 1014.9 0.3 75
2020-03-14 00:00:00 13.8 4 Norte 10 Norte 0 1014.9 0.5 72
2020-03-13 23:00:00 14.5 3 Norte 5 Este 0 1014.9 0.8 68
2020-03-13 22:00:00 14.7 3 Sudeste 10 Sudeste 0 1014.6 0.8 67
2020-03-13 21:00:00 15 5 Sudeste 12 Sudeste 0 1014.4 0.8 66
2020-03-13 20:00:00 15.5 4 Sudeste 22 Sudeste 0 1014.1 0.2 65
2020-03-13 19:00:00 16.2 12 Sudeste 22 Sudeste 0 1013.8 -0.4 63
2020-03-13 18:00:00 17.3 12 Sudeste 25 Sur 0 1013.6 -0.6 61
2020-03-13 17:00:00 17.8 8 Sudeste 29 Sudeste 0 1013.9 -0.9 63
2020-03-13 16:00:00 17.9 15 Sudeste 30 Sudeste 0 1014.2 -1.3 62
2020-03-13 15:00:00 19.3 13 Sudeste 29 Sudeste 0 1014.2 -2 56
2020-03-13 14:00:00 21.4 12 Sudeste 24 Sur 0 1014.8 -1.8 51
2020-03-13 13:00:00 21 12 Sudeste 20 Sur 0 1015.5 -1.5 49
2020-03-13 12:00:00 18.7 4 Este 11 Noroeste 0 1016.2 -0.3 59
2020-03-13 11:00:00 17.1 5 Noroeste 13 Oeste 0 1016.6 1 67
2020-03-13 10:00:00 15.4 8 Sudoeste 14 Sudoeste 0 1017 1.8 76
2020-03-13 09:00:00 13.4 4 Sudoeste 8 Sudoeste 0 1016.5 1.8 87
2020-03-13 08:00:00 12.1 5 Sudoeste 7 Sudoeste 0 1015.6 1.2 93
2020-03-13 07:00:00 12.2 4 Sudoeste 9 Sudoeste 0 1015.2 0.9 92
2020-03-13 06:00:00 12.3 4 Sudoeste 8 Sudoeste 0 1014.7 -0.1 92
2020-03-13 05:00:00 12.4 3 Sudoeste 8 Norte 0 1014.4 -0.4 92
2020-03-13 04:00:00 12.5 4 Nordeste 6 Oeste 0 1014.3 -0.5 92
2020-03-13 03:00:00 12.4 0 Calma 6 Sur 0 1014.8 0 94
2020-03-13 02:00:00 12.3 4 Sur 11 Sur 0 1014.8 0.3 94
2020-03-13 01:00:00 12.3 2 Sur 5 Norte 0 1014.8 0.8 93
2020-03-13 00:00:00 12.4 4 Nordeste 7 Sudoeste 0 1014.8 1 94
2020-03-12 23:00:00 12.7 2 Este 6 Este 0 1014.5 0.9 93
2020-03-12 22:00:00 13.2 6 Sudoeste 13 Sudoeste 0 1014 1.1 91
2020-03-12 21:00:00 13.5 9 Sudoeste 17 Sur 0 1013.8 1.1 90
2020-03-12 20:00:00 14.3 12 Sudoeste 21 Sudoeste 0 1013.6 1.2 87
2020-03-12 19:00:00 15.9 13 Sur 21 Sur 0 1012.9 -0.2 80
2020-03-12 18:00:00 18.7 12 Sur 19 Sur 0 1012.7 -0.9 63
2020-03-12 17:00:00 21.2 10 Sur 22 Sur 0 1012.4 -2.1 54
2020-03-12 16:00:00 21.5 15 Sur 27 Sur 0 1013.1 -2.3 51
2020-03-12 15:00:00 22.1 14 Sur 26 Sur 0 1013.6 -2.4 52
2020-03-12 14:00:00 22.4 14 Sur 23 Sur 0 1014.5 -1.9 54
2020-03-12 13:00:00 22.3 9 Sur 15 Sudeste 0 1015.4 -1.3 50
2020-03-12 12:00:00 19.4 9 Sur 14 Sur 0 1016 -0.6 63
2020-03-12 11:00:00 17.8 7 Sur 15 Sur 0 1016.4 0.4 68
2020-03-12 10:00:00 15.4 4 Sudeste 7 Este 0 1016.7 0.7 74
2020-03-12 09:00:00 11.1 2 Sudoeste 9 Norte 0 1016.6 0.5 89
2020-03-12 08:00:00 8.4 0 Calma 7 Noroeste 0 1016 -0.2 96
2020-03-12 07:00:00 8.7 4 Norte 8 Norte 0 1016 -0.3 95
2020-03-12 06:00:00 9.7 2 Norte 6 Norte 0 1016.1 -0.7 97
2020-03-12 05:00:00 10 2 Norte 5 Norte 0 1016.2 -0.8 96
2020-03-12 04:00:00 10.4 0 Calma 4 Nordeste 0 1016.3 -0.9 96
2020-03-12 03:00:00 9.7 5 Norte 7 Norte 0 1016.8 -0.7 91
2020-03-12 02:00:00 10.3 3 Sudeste 4 Sudeste 0 1017 -0.7 90
2020-03-12 01:00:00 10.8 4 Sudeste 5 Sudeste 0 1017.2 -0.6 87
2020-03-12 00:00:00 11.7 2 Noroeste 6 Noroeste 0 1017.5 -0.3 85
2020-03-11 23:00:00 12.6 4 Norte 5 Noroeste 0 1017.7 0.1 82
2020-03-11 22:00:00 13.4 4 Sudoeste 10 Sudoeste 0 1017.8 0.7 79
2020-03-11 21:00:00 14.1 6 Sudoeste 11 Sudoeste 0 1017.8 1.1 78
2020-03-11 20:00:00 15.2 6 Sudoeste 14 Sur 0 1017.6 1.1 73
2020-03-11 19:00:00 17 9 Sur 16 Sur 0 1017.1 0.4 65
2020-03-11 18:00:00 20.5 11 Sur 21 Sur 0 1016.7 -0.3 57
2020-03-11 17:00:00 22.3 12 Sur 24 Sur 0 1016.5 -1 55
2020-03-11 16:00:00 24.2 12 Sudeste 25 Sur 0 1016.7 -1.7 53
2020-03-11 15:00:00 25.4 14 Sudeste 25 Sudeste 0 1017 -2.2 45
2020-03-11 14:00:00 25.7 8 Sur 15 Sur 0 1017.5 -1.9 40
2020-03-11 13:00:00 24.2 7 Sur 13 Sur 0 1018.4 -0.9 42
2020-03-11 12:00:00 22 5 Sudeste 13 Sur 0 1019.2 0.3 47
2020-03-11 11:00:00 18.7 7 Sur 13 Sudeste 0 1019.4 1.3 60
2020-03-11 10:00:00 15.5 6 Sur 12 Sudoeste 0 1019.3 1.8 77
2020-03-11 09:00:00 12.4 8 Sur 14 Sudoeste 0 1018.9 1.8 88
2020-03-11 08:00:00 9.9 9 Sudoeste 16 Sudoeste 0 1018.1 1.3 95
2020-03-11 07:00:00 9.7 5 Sudoeste 14 Sur 0 1017.5 0.7 92
2020-03-11 06:00:00 9.9 6 Sudoeste 16 Oeste 0 1017.1 -0.2 84
2020-03-11 05:00:00 9.5 5 Sur 16 Norte 0 1016.8 -1.4 88
2020-03-11 04:00:00 9.3 5 Este 22 Norte 0 1016.8 -2 89
2020-03-11 03:00:00 9.6 7 Norte 18 Norte 0 1017.3 -1.4 90
2020-03-11 02:00:00 9.6 4 Norte 12 Noroeste 0 1018.2 -0.7 91
2020-03-11 01:00:00 10.3 4 Norte 9 Oeste 0 1018.8 -0.1 89
2020-03-11 00:00:00 11.2 3 Sudeste 9 Noroeste 0 1018.7 0.2 84